sensor_id;sensor_type;location;lat;lon;timestamp;pressure;altitude;pressure_sealevel;temperature;humidity
59443;BME280;45247;47.466;19.004;2023-05-22T00:01:44;99813.25;;;17.21;100.00
59443;BME280;45247;47.466;19.004;2023-05-22T00:04:15;99811.41;;;17.21;100.00
59443;BME280;45247;47.466;19.004;2023-05-22T00:06:47;99814.13;;;17.31;100.00
59443;BME280;45247;47.466;19.004;2023-05-22T00:09:15;99820.16;;;17.33;100.00
59443;BME280;45247;47.466;19.004;2023-05-22T00:11:43;99815.91;;;17.21;100.00
59443;BME280;45247;47.466;19.004;2023-05-22T00:14:12;99817.16;;;17.17;100.00
59443;BME280;45247;47.466;19.004;2023-05-22T00:16:41;99810.97;;;17.07;100.00
59443;BME280;45247;47.466;19.004;2023-05-22T00:19:09;99818.69;;;17.10;100.00
59443;BME280;45247;47.466;19.004;2023-05-22T00:21:42;99822.06;;;17.12;100.00
59443;BME280;45247;47.466;19.004;2023-05-22T00:24:11;99813.38;;;17.10;100.00
59443;BME280;45247;47.466;19.004;2023-05-22T00:26:39;99816.28;;;17.07;100.00
59443;BME280;45247;47.466;19.004;2023-05-22T00:29:07;99810.81;;;17.08;100.00
59443;BME280;45247;47.466;19.004;2023-05-22T00:31:35;99810.13;;;17.06;100.00
59443;BME280;45247;47.466;19.004;2023-05-22T00:34:05;99815.00;;;17.01;100.00
59443;BME280;45247;47.466;19.004;2023-05-22T00:36:33;99816.66;;;16.92;100.00
59443;BME280;45247;47.466;19.004;2023-05-22T00:39:01;99822.50;;;16.86;100.00
59443;BME280;45247;47.466;19.004;2023-05-22T00:41:30;99810.72;;;16.79;100.00
59443;BME280;45247;47.466;19.004;2023-05-22T00:43:59;99815.06;;;16.80;100.00
59443;BME280;45247;47.466;19.004;2023-05-22T00:46:28;99818.25;;;16.74;100.00
59443;BME280;45247;47.466;19.004;2023-05-22T00:48:57;99816.88;;;16.80;100.00
59443;BME280;45247;47.466;19.004;2023-05-22T00:51:26;99818.88;;;16.87;100.00
59443;BME280;45247;47.466;19.004;2023-05-22T00:53:55;99814.63;;;16.75;100.00
59443;BME280;45247;47.466;19.004;2023-05-22T00:56:24;99811.00;;;16.65;100.00
59443;BME280;45247;47.466;19.004;2023-05-22T00:58:54;99811.94;;;16.54;100.00
59443;BME280;45247;47.466;19.004;2023-05-22T01:01:23;99817.88;;;16.58;100.00
59443;BME280;45247;47.466;19.004;2023-05-22T01:03:52;99822.84;;;16.51;100.00
59443;BME280;45247;47.466;19.004;2023-05-22T01:06:21;99817.94;;;16.46;100.00
59443;BME280;45247;47.466;19.004;2023-05-22T01:08:51;99817.72;;;16.38;100.00
59443;BME280;45247;47.466;19.004;2023-05-22T01:11:24;99815.25;;;16.46;100.00
59443;BME280;45247;47.466;19.004;2023-05-22T01:13:59;99810.78;;;16.47;100.00
59443;BME280;45247;47.466;19.004;2023-05-22T01:16:34;99813.84;;;16.42;100.00
59443;BME280;45247;47.466;19.004;2023-05-22T01:19:10;99812.06;;;16.52;100.00
59443;BME280;45247;47.466;19.004;2023-05-22T01:21:48;99805.31;;;16.48;100.00
59443;BME280;45247;47.466;19.004;2023-05-22T01:24:46;99812.53;;;16.58;99.51
59443;BME280;45247;47.466;19.004;2023-05-22T01:33:18;99804.19;;;16.72;96.02
59443;BME280;45247;47.466;19.004;2023-05-22T01:35:50;99805.56;;;16.66;94.65
59443;BME280;45247;47.466;19.004;2023-05-22T01:38:20;99805.19;;;16.71;94.34
59443;BME280;45247;47.466;19.004;2023-05-22T01:40:48;99797.91;;;16.73;94.79
59443;BME280;45247;47.466;19.004;2023-05-22T01:43:17;99799.25;;;16.67;93.64
59443;BME280;45247;47.466;19.004;2023-05-22T01:45:46;99800.34;;;16.65;94.92
59443;BME280;45247;47.466;19.004;2023-05-22T01:48:14;99793.88;;;16.58;95.54
59443;BME280;45247;47.466;19.004;2023-05-22T01:50:44;99789.66;;;16.55;93.55
59443;BME280;45247;47.466;19.004;2023-05-22T01:53:21;99794.16;;;16.55;93.46
59443;BME280;45247;47.466;19.004;2023-05-22T01:56:02;99787.84;;;16.56;91.56
59443;BME280;45247;47.466;19.004;2023-05-22T01:58:38;99790.94;;;16.61;88.26
59443;BME280;45247;47.466;19.004;2023-05-22T02:01:11;99781.13;;;16.61;87.63
59443;BME280;45247;47.466;19.004;2023-05-22T02:03:41;99775.66;;;16.53;87.11
59443;BME280;45247;47.466;19.004;2023-05-22T02:06:12;99774.06;;;16.50;87.95
59443;BME280;45247;47.466;19.004;2023-05-22T02:08:42;99780.09;;;16.52;88.53
59443;BME280;45247;47.466;19.004;2023-05-22T02:11:11;99769.72;;;16.49;87.07
59443;BME280;45247;47.466;19.004;2023-05-22T02:13:40;99778.53;;;16.40;89.04
59443;BME280;45247;47.466;19.004;2023-05-22T02:16:09;99779.22;;;16.42;88.67
59443;BME280;45247;47.466;19.004;2023-05-22T02:18:38;99781.25;;;16.29;88.04
59443;BME280;45247;47.466;19.004;2023-05-22T02:21:08;99781.09;;;16.31;89.12
59443;BME280;45247;47.466;19.004;2023-05-22T02:23:38;99779.91;;;16.44;87.10
59443;BME280;45247;47.466;19.004;2023-05-22T02:26:06;99781.03;;;16.42;86.13
59443;BME280;45247;47.466;19.004;2023-05-22T02:28:34;99774.88;;;16.41;85.78
59443;BME280;45247;47.466;19.004;2023-05-22T02:31:03;99773.19;;;16.40;85.18
59443;BME280;45247;47.466;19.004;2023-05-22T02:33:32;99769.25;;;16.44;83.81
59443;BME280;45247;47.466;19.004;2023-05-22T02:36:01;99768.16;;;16.47;83.99
59443;BME280;45247;47.466;19.004;2023-05-22T02:38:29;99773.75;;;16.44;83.47
59443;BME280;45247;47.466;19.004;2023-05-22T02:40:58;99770.16;;;16.55;83.51
59443;BME280;45247;47.466;19.004;2023-05-22T02:43:26;99772.44;;;16.59;83.38
59443;BME280;45247;47.466;19.004;2023-05-22T02:45:55;99769.63;;;16.61;84.11
59443;BME280;45247;47.466;19.004;2023-05-22T02:48:23;99769.91;;;16.58;85.44
59443;BME280;45247;47.466;19.004;2023-05-22T02:50:51;99769.03;;;16.57;85.89
59443;BME280;45247;47.466;19.004;2023-05-22T02:53:19;99772.66;;;16.46;87.63
59443;BME280;45247;47.466;19.004;2023-05-22T02:55:47;99762.53;;;16.40;88.85
59443;BME280;45247;47.466;19.004;2023-05-22T02:58:17;99769.09;;;16.36;90.88
59443;BME280;45247;47.466;19.004;2023-05-22T03:00:46;99772.03;;;16.33;91.06
59443;BME280;45247;47.466;19.004;2023-05-22T03:03:15;99778.53;;;16.40;91.10
59443;BME280;45247;47.466;19.004;2023-05-22T03:05:44;99760.31;;;16.45;90.41
59443;BME280;45247;47.466;19.004;2023-05-22T03:08:13;99770.44;;;16.51;89.99
59443;BME280;45247;47.466;19.004;2023-05-22T03:10:42;99770.88;;;16.57;88.86
59443;BME280;45247;47.466;19.004;2023-05-22T03:13:10;99770.16;;;16.55;88.59
59443;BME280;45247;47.466;19.004;2023-05-22T03:15:39;99762.88;;;16.57;88.46
59443;BME280;45247;47.466;19.004;2023-05-22T03:18:08;99763.19;;;16.63;88.26
59443;BME280;45247;47.466;19.004;2023-05-22T03:20:36;99756.47;;;16.69;86.85
59443;BME280;45247;47.466;19.004;2023-05-22T03:23:04;99760.13;;;16.68;86.54
59443;BME280;45247;47.466;19.004;2023-05-22T03:25:33;99760.72;;;16.71;86.18
59443;BME280;45247;47.466;19.004;2023-05-22T03:28:01;99756.84;;;16.75;86.83
59443;BME280;45247;47.466;19.004;2023-05-22T03:30:29;99759.28;;;16.88;85.66
59443;BME280;45247;47.466;19.004;2023-05-22T03:32:59;99760.53;;;16.94;83.72
59443;BME280;45247;47.466;19.004;2023-05-22T03:35:27;99758.88;;;17.02;83.70
59443;BME280;45247;47.466;19.004;2023-05-22T03:37:55;99755.72;;;17.28;82.80
59443;BME280;45247;47.466;19.004;2023-05-22T03:40:23;99764.34;;;17.61;78.20
59443;BME280;45247;47.466;19.004;2023-05-22T03:42:51;99762.66;;;17.98;75.44
59443;BME280;45247;47.466;19.004;2023-05-22T03:45:20;99759.84;;;18.76;69.18
59443;BME280;45247;47.466;19.004;2023-05-22T03:47:48;99747.25;;;19.77;64.22
59443;BME280;45247;47.466;19.004;2023-05-22T03:50:18;99750.53;;;20.59;59.54
59443;BME280;45247;47.466;19.004;2023-05-22T03:52:46;99751.44;;;21.10;57.88
59443;BME280;45247;47.466;19.004;2023-05-22T03:55:14;99751.28;;;21.86;54.65
59443;BME280;45247;47.466;19.004;2023-05-22T03:57:43;99753.16;;;22.02;54.15
59443;BME280;45247;47.466;19.004;2023-05-22T04:00:12;99749.25;;;21.96;53.49
59443;BME280;45247;47.466;19.004;2023-05-22T04:02:42;99747.94;;;21.76;53.74
59443;BME280;45247;47.466;19.004;2023-05-22T04:05:12;99753.03;;;22.75;51.91
59443;BME280;45247;47.466;19.004;2023-05-22T04:07:42;99756.56;;;22.68;51.39
59443;BME280;45247;47.466;19.004;2023-05-22T04:10:11;99754.34;;;22.88;50.07
59443;BME280;45247;47.466;19.004;2023-05-22T04:12:39;99755.28;;;21.58;53.79
59443;BME280;45247;47.466;19.004;2023-05-22T04:15:08;99759.28;;;20.61;56.57
59443;BME280;45247;47.466;19.004;2023-05-22T04:17:38;99761.72;;;20.28;58.33
59443;BME280;45247;47.466;19.004;2023-05-22T04:20:07;99759.41;;;19.89;59.66
59443;BME280;45247;47.466;19.004;2023-05-22T04:22:37;99760.50;;;19.33;60.88
59443;BME280;45247;47.466;19.004;2023-05-22T04:25:07;99752.00;;;19.20;62.92
59443;BME280;45247;47.466;19.004;2023-05-22T04:27:36;99759.41;;;19.08;63.93
59443;BME280;45247;47.466;19.004;2023-05-22T04:30:06;99762.19;;;18.79;64.63
59443;BME280;45247;47.466;19.004;2023-05-22T04:32:36;99763.47;;;18.75;64.79
59443;BME280;45247;47.466;19.004;2023-05-22T04:35:04;99752.53;;;18.68;65.44
59443;BME280;45247;47.466;19.004;2023-05-22T04:37:33;99763.03;;;18.89;65.39
59443;BME280;45247;47.466;19.004;2023-05-22T04:40:01;99765.53;;;18.91;64.82
59443;BME280;45247;47.466;19.004;2023-05-22T04:42:35;99758.03;;;19.22;65.22
59443;BME280;45247;47.466;19.004;2023-05-22T04:45:05;99762.47;;;19.31;64.81
59443;BME280;45247;47.466;19.004;2023-05-22T04:47:33;99757.72;;;20.32;59.81
59443;BME280;45247;47.466;19.004;2023-05-22T04:50:05;99776.06;;;20.45;58.19
59443;BME280;45247;47.466;19.004;2023-05-22T04:52:33;99765.72;;;20.24;58.40
59443;BME280;45247;47.466;19.004;2023-05-22T04:55:01;99774.00;;;19.95;59.35
59443;BME280;45247;47.466;19.004;2023-05-22T04:57:31;99771.97;;;19.89;59.78
59443;BME280;45247;47.466;19.004;2023-05-22T05:00:01;99767.34;;;19.45;60.64
59443;BME280;45247;47.466;19.004;2023-05-22T05:02:30;99775.31;;;19.73;60.01
59443;BME280;45247;47.466;19.004;2023-05-22T05:04:58;99773.72;;;19.98;59.66
59443;BME280;45247;47.466;19.004;2023-05-22T05:07:27;99784.09;;;20.45;59.15
59443;BME280;45247;47.466;19.004;2023-05-22T05:09:55;99785.03;;;20.54;59.65
59443;BME280;45247;47.466;19.004;2023-05-22T05:12:23;99785.13;;;20.70;57.90
59443;BME280;45247;47.466;19.004;2023-05-22T05:14:51;99779.31;;;20.48;58.08
59443;BME280;45247;47.466;19.004;2023-05-22T05:17:21;99792.78;;;20.91;58.29
59443;BME280;45247;47.466;19.004;2023-05-22T05:19:49;99786.34;;;22.66;52.77
59443;BME280;45247;47.466;19.004;2023-05-22T05:22:17;99787.28;;;25.26;46.86
59443;BME280;45247;47.466;19.004;2023-05-22T05:24:46;99781.91;;;26.27;42.49
59443;BME280;45247;47.466;19.004;2023-05-22T05:27:14;99787.31;;;25.47;43.34
59443;BME280;45247;47.466;19.004;2023-05-22T05:29:42;99790.66;;;24.54;44.42
59443;BME280;45247;47.466;19.004;2023-05-22T05:32:10;99778.19;;;24.30;44.96
59443;BME280;45247;47.466;19.004;2023-05-22T05:34:41;99781.63;;;25.21;42.83
59443;BME280;45247;47.466;19.004;2023-05-22T05:37:09;99789.09;;;25.91;42.01
59443;BME280;45247;47.466;19.004;2023-05-22T05:39:37;99793.06;;;26.17;43.02
59443;BME280;45247;47.466;19.004;2023-05-22T05:42:05;99796.13;;;27.94;39.09
59443;BME280;45247;47.466;19.004;2023-05-22T05:44:33;99797.78;;;28.68;37.28
59443;BME280;45247;47.466;19.004;2023-05-22T05:47:02;99802.78;;;28.84;36.33
59443;BME280;45247;47.466;19.004;2023-05-22T05:49:30;99799.72;;;30.09;33.89
59443;BME280;45247;47.466;19.004;2023-05-22T05:52:02;99798.50;;;30.80;33.11
59443;BME280;45247;47.466;19.004;2023-05-22T05:54:31;99800.22;;;30.74;33.75
59443;BME280;45247;47.466;19.004;2023-05-22T05:56:59;99801.47;;;31.33;32.69
59443;BME280;45247;47.466;19.004;2023-05-22T05:59:27;99795.56;;;31.36;32.12
59443;BME280;45247;47.466;19.004;2023-05-22T06:01:57;99800.25;;;29.61;33.61
59443;BME280;45247;47.466;19.004;2023-05-22T06:04:25;99799.31;;;29.29;34.11
59443;BME280;45247;47.466;19.004;2023-05-22T06:06:53;99802.34;;;29.01;34.00
59443;BME280;45247;47.466;19.004;2023-05-22T06:09:23;99799.84;;;27.80;36.10
59443;BME280;45247;47.466;19.004;2023-05-22T06:11:51;99807.72;;;29.14;35.59
59443;BME280;45247;47.466;19.004;2023-05-22T06:14:20;99798.81;;;29.45;35.48
59443;BME280;45247;47.466;19.004;2023-05-22T06:16:48;99799.81;;;28.99;35.07
59443;BME280;45247;47.466;19.004;2023-05-22T06:19:23;99800.28;;;28.76;35.43
59443;BME280;45247;47.466;19.004;2023-05-22T06:21:51;99800.28;;;28.83;34.92
59443;BME280;45247;47.466;19.004;2023-05-22T06:24:19;99797.59;;;28.10;35.92
59443;BME280;45247;47.466;19.004;2023-05-22T06:26:49;99807.41;;;27.02;36.72
59443;BME280;45247;47.466;19.004;2023-05-22T06:29:17;99799.06;;;26.40;37.82
59443;BME280;45247;47.466;19.004;2023-05-22T06:31:45;99797.09;;;26.28;38.84
59443;BME280;45247;47.466;19.004;2023-05-22T06:34:14;99797.75;;;25.51;39.55
59443;BME280;45247;47.466;19.004;2023-05-22T06:36:42;99807.47;;;25.30;40.43
59443;BME280;45247;47.466;19.004;2023-05-22T06:39:11;99803.69;;;25.25;40.59
59443;BME280;45247;47.466;19.004;2023-05-22T06:41:39;99801.44;;;25.79;39.41
59443;BME280;45247;47.466;19.004;2023-05-22T06:44:09;99805.81;;;25.80;40.47
59443;BME280;45247;47.466;19.004;2023-05-22T06:46:40;99804.28;;;25.92;39.95
59443;BME280;45247;47.466;19.004;2023-05-22T06:49:08;99809.81;;;26.06;38.83
59443;BME280;45247;47.466;19.004;2023-05-22T06:51:36;99799.63;;;25.86;38.81
59443;BME280;45247;47.466;19.004;2023-05-22T06:54:04;99810.84;;;26.05;39.13
59443;BME280;45247;47.466;19.004;2023-05-22T06:56:33;99813.06;;;26.72;38.49
59443;BME280;45247;47.466;19.004;2023-05-22T06:59:02;99810.19;;;26.80;37.97
59443;BME280;45247;47.466;19.004;2023-05-22T07:01:33;99804.97;;;26.01;38.10
59443;BME280;45247;47.466;19.004;2023-05-22T07:04:01;99807.59;;;25.94;38.21
59443;BME280;45247;47.466;19.004;2023-05-22T07:06:31;99816.41;;;25.45;39.50
59443;BME280;45247;47.466;19.004;2023-05-22T07:09:05;99807.63;;;24.40;40.71
59443;BME280;45247;47.466;19.004;2023-05-22T07:11:33;99811.59;;;24.29;41.67
59443;BME280;45247;47.466;19.004;2023-05-22T07:14:01;99819.78;;;24.88;39.50
59443;BME280;45247;47.466;19.004;2023-05-22T07:16:29;99817.03;;;25.62;39.76
59443;BME280;45247;47.466;19.004;2023-05-22T07:18:59;99819.25;;;25.95;38.97
59443;BME280;45247;47.466;19.004;2023-05-22T07:21:29;99820.91;;;25.75;39.20
59443;BME280;45247;47.466;19.004;2023-05-22T07:23:57;99804.16;;;25.28;39.80
59443;BME280;45247;47.466;19.004;2023-05-22T07:26:28;99806.91;;;24.46;40.49
59443;BME280;45247;47.466;19.004;2023-05-22T07:28:56;99804.88;;;23.79;41.69
59443;BME280;45247;47.466;19.004;2023-05-22T07:31:25;99812.03;;;23.95;41.06
59443;BME280;45247;47.466;19.004;2023-05-22T07:33:53;99816.94;;;23.68;41.86
59443;BME280;45247;47.466;19.004;2023-05-22T07:36:23;99812.63;;;23.82;42.32
59443;BME280;45247;47.466;19.004;2023-05-22T07:38:51;99799.56;;;24.17;42.54
59443;BME280;45247;47.466;19.004;2023-05-22T07:41:19;99791.88;;;24.29;42.19
59443;BME280;45247;47.466;19.004;2023-05-22T07:43:48;99791.63;;;24.38;41.58
59443;BME280;45247;47.466;19.004;2023-05-22T07:46:17;99804.97;;;24.32;42.43
59443;BME280;45247;47.466;19.004;2023-05-22T07:48:45;99797.88;;;24.16;41.92
59443;BME280;45247;47.466;19.004;2023-05-22T07:51:13;99806.25;;;24.21;42.67
59443;BME280;45247;47.466;19.004;2023-05-22T07:53:43;99804.81;;;24.33;41.97
59443;BME280;45247;47.466;19.004;2023-05-22T07:56:11;99803.72;;;24.19;42.85
59443;BME280;45247;47.466;19.004;2023-05-22T07:58:39;99800.34;;;23.80;43.14
59443;BME280;45247;47.466;19.004;2023-05-22T08:01:08;99813.41;;;23.60;42.58
59443;BME280;45247;47.466;19.004;2023-05-22T08:03:36;99809.25;;;23.18;43.03
59443;BME280;45247;47.466;19.004;2023-05-22T08:06:05;99814.50;;;22.87;44.06
59443;BME280;45247;47.466;19.004;2023-05-22T08:08:34;99800.06;;;22.96;45.11
59443;BME280;45247;47.466;19.004;2023-05-22T08:11:03;99803.06;;;23.09;46.21
59443;BME280;45247;47.466;19.004;2023-05-22T08:13:32;99805.88;;;23.16;44.49
59443;BME280;45247;47.466;19.004;2023-05-22T08:16:00;99811.16;;;23.40;46.23
59443;BME280;45247;47.466;19.004;2023-05-22T08:18:29;99796.88;;;23.63;44.33
59443;BME280;45247;47.466;19.004;2023-05-22T08:20:57;99796.22;;;23.69;43.61
59443;BME280;45247;47.466;19.004;2023-05-22T08:23:27;99805.84;;;23.86;43.48
59443;BME280;45247;47.466;19.004;2023-05-22T08:25:56;99803.38;;;24.45;44.02
59443;BME280;45247;47.466;19.004;2023-05-22T08:28:26;99800.59;;;24.31;45.01
59443;BME280;45247;47.466;19.004;2023-05-22T08:30:54;99792.13;;;24.42;45.19
59443;BME280;45247;47.466;19.004;2023-05-22T08:33:23;99811.00;;;24.42;43.83
59443;BME280;45247;47.466;19.004;2023-05-22T08:35:51;99799.09;;;24.66;42.01
59443;BME280;45247;47.466;19.004;2023-05-22T08:38:19;99804.66;;;24.49;42.99
59443;BME280;45247;47.466;19.004;2023-05-22T08:40:47;99798.69;;;24.39;42.64
59443;BME280;45247;47.466;19.004;2023-05-22T08:43:18;99810.16;;;24.56;43.79
59443;BME280;45247;47.466;19.004;2023-05-22T08:45:51;99802.59;;;24.37;42.94
59443;BME280;45247;47.466;19.004;2023-05-22T08:48:24;99797.72;;;24.32;42.58
59443;BME280;45247;47.466;19.004;2023-05-22T08:50:57;99801.69;;;24.44;42.12
59443;BME280;45247;47.466;19.004;2023-05-22T08:53:27;99797.59;;;24.48;43.58
59443;BME280;45247;47.466;19.004;2023-05-22T08:55:56;99801.41;;;24.39;42.37
59443;BME280;45247;47.466;19.004;2023-05-22T08:58:25;99801.44;;;24.54;42.40
59443;BME280;45247;47.466;19.004;2023-05-22T09:00:55;99791.63;;;24.38;43.57
59443;BME280;45247;47.466;19.004;2023-05-22T09:03:26;99802.06;;;24.71;43.61
59443;BME280;45247;47.466;19.004;2023-05-22T09:05:58;99799.28;;;25.38;44.39
59443;BME280;45247;47.466;19.004;2023-05-22T09:08:27;99803.69;;;25.25;41.88
59443;BME280;45247;47.466;19.004;2023-05-22T09:10:55;99800.53;;;24.77;43.05
59443;BME280;45247;47.466;19.004;2023-05-22T09:13:27;99795.41;;;24.82;43.24
59443;BME280;45247;47.466;19.004;2023-05-22T09:16:06;99789.63;;;24.32;44.22
59443;BME280;45247;47.466;19.004;2023-05-22T09:18:35;99796.69;;;23.95;43.93
59443;BME280;45247;47.466;19.004;2023-05-22T09:21:05;99792.50;;;24.31;45.81
59443;BME280;45247;47.466;19.004;2023-05-22T09:23:56;99799.84;;;24.74;44.38
59443;BME280;45247;47.466;19.004;2023-05-22T09:26:26;99798.09;;;24.67;43.00
59443;BME280;45247;47.466;19.004;2023-05-22T09:28:54;99797.44;;;24.94;44.58
59443;BME280;45247;47.466;19.004;2023-05-22T09:31:24;99798.38;;;25.31;42.64
59443;BME280;45247;47.466;19.004;2023-05-22T09:33:54;99796.56;;;25.38;43.53
59443;BME280;45247;47.466;19.004;2023-05-22T09:36:29;99799.63;;;25.86;44.09
59443;BME280;45247;47.466;19.004;2023-05-22T09:38:59;99791.66;;;26.21;41.83
59443;BME280;45247;47.466;19.004;2023-05-22T09:41:28;99794.88;;;25.88;40.52
59443;BME280;45247;47.466;19.004;2023-05-22T09:43:57;99784.78;;;25.61;41.38
59443;BME280;45247;47.466;19.004;2023-05-22T09:46:29;99793.50;;;25.78;40.54
59443;BME280;45247;47.466;19.004;2023-05-22T09:49:00;99791.84;;;25.98;41.27
59443;BME280;45247;47.466;19.004;2023-05-22T09:51:29;99789.22;;;26.05;41.18
59443;BME280;45247;47.466;19.004;2023-05-22T09:54:02;99786.75;;;25.88;39.78
59443;BME280;45247;47.466;19.004;2023-05-22T09:56:34;99772.00;;;26.34;40.32
59443;BME280;45247;47.466;19.004;2023-05-22T09:59:07;99775.13;;;27.00;41.16
59443;BME280;45247;47.466;19.004;2023-05-22T10:01:49;99784.06;;;26.94;38.96
59443;BME280;45247;47.466;19.004;2023-05-22T10:04:21;99775.28;;;26.92;40.70
59443;BME280;45247;47.466;19.004;2023-05-22T10:06:52;99775.59;;;26.69;40.13
59443;BME280;45247;47.466;19.004;2023-05-22T10:09:23;99754.84;;;26.27;41.42
59443;BME280;45247;47.466;19.004;2023-05-22T10:11:57;99768.88;;;26.37;40.86
59443;BME280;45247;47.466;19.004;2023-05-22T10:14:30;99780.63;;;26.79;43.24
59443;BME280;45247;47.466;19.004;2023-05-22T10:17:06;99774.94;;;27.08;41.51
59443;BME280;45247;47.466;19.004;2023-05-22T10:19:37;99769.66;;;27.35;43.26
59443;BME280;45247;47.466;19.004;2023-05-22T10:22:10;99768.44;;;27.37;41.29
59443;BME280;45247;47.466;19.004;2023-05-22T10:24:44;99765.38;;;27.54;41.09
59443;BME280;45247;47.466;19.004;2023-05-22T10:27:13;99767.00;;;27.41;40.82
59443;BME280;45247;47.466;19.004;2023-05-22T10:29:48;99765.78;;;27.03;42.09
59443;BME280;45247;47.466;19.004;2023-05-22T10:32:26;99756.13;;;27.28;41.27
59443;BME280;45247;47.466;19.004;2023-05-22T10:35:04;99755.53;;;27.46;40.88
59443;BME280;45247;47.466;19.004;2023-05-22T10:37:43;99742.09;;;27.18;40.64
59443;BME280;45247;47.466;19.004;2023-05-22T10:40:31;99738.00;;;27.29;41.83
59443;BME280;45247;47.466;19.004;2023-05-22T10:43:08;99748.34;;;27.12;40.55
59443;BME280;45247;47.466;19.004;2023-05-22T10:45:37;99741.41;;;26.68;38.30
59443;BME280;45247;47.466;19.004;2023-05-22T10:48:10;99744.31;;;26.60;39.71
59443;BME280;45247;47.466;19.004;2023-05-22T10:50:39;99739.72;;;26.32;42.29
59443;BME280;45247;47.466;19.004;2023-05-22T10:53:18;99736.91;;;26.19;39.30
59443;BME280;45247;47.466;19.004;2023-05-22T10:55:52;99738.66;;;26.33;38.66
59443;BME280;45247;47.466;19.004;2023-05-22T10:58:27;99731.09;;;25.94;39.34
59443;BME280;45247;47.466;19.004;2023-05-22T11:01:12;99738.78;;;26.18;40.45
59443;BME280;45247;47.466;19.004;2023-05-22T11:03:53;99726.00;;;26.06;38.50
59443;BME280;45247;47.466;19.004;2023-05-22T11:06:32;99723.63;;;26.24;37.97
59443;BME280;45247;47.466;19.004;2023-05-22T11:12:16;99712.44;;;26.55;40.51
59443;BME280;45247;47.466;19.004;2023-05-22T11:14:49;99722.69;;;26.38;41.10
59443;BME280;45247;47.466;19.004;2023-05-22T11:17:20;99711.28;;;26.43;39.63
59443;BME280;45247;47.466;19.004;2023-05-22T11:19:58;99702.63;;;26.54;39.99
59443;BME280;45247;47.466;19.004;2023-05-22T11:22:32;99703.06;;;26.58;39.61
59443;BME280;45247;47.466;19.004;2023-05-22T11:25:04;99700.03;;;26.74;41.85
59443;BME280;45247;47.466;19.004;2023-05-22T11:27:35;99696.56;;;26.93;42.51
59443;BME280;45247;47.466;19.004;2023-05-22T11:30:06;99695.34;;;26.96;42.73
59443;BME280;45247;47.466;19.004;2023-05-22T11:32:35;99704.13;;;27.05;41.85
59443;BME280;45247;47.466;19.004;2023-05-22T11:35:06;99692.91;;;26.60;41.27
59443;BME280;45247;47.466;19.004;2023-05-22T11:37:37;99691.78;;;26.48;41.28
59443;BME280;45247;47.466;19.004;2023-05-22T11:40:08;99698.38;;;26.73;43.01
59443;BME280;45247;47.466;19.004;2023-05-22T11:42:36;99690.00;;;26.68;41.84
59443;BME280;45247;47.466;19.004;2023-05-22T11:45:05;99689.69;;;26.50;41.10
59443;BME280;45247;47.466;19.004;2023-05-22T11:47:34;99688.47;;;26.52;40.99
59443;BME280;45247;47.466;19.004;2023-05-22T11:50:06;99686.59;;;26.53;41.91
59443;BME280;45247;47.466;19.004;2023-05-22T11:52:38;99682.75;;;26.75;42.48
59443;BME280;45247;47.466;19.004;2023-05-22T11:55:08;99685.13;;;26.50;41.62
59443;BME280;45247;47.466;19.004;2023-05-22T11:57:36;99686.88;;;26.64;42.15
59443;BME280;45247;47.466;19.004;2023-05-22T12:00:08;99684.84;;;26.73;41.97
59443;BME280;45247;47.466;19.004;2023-05-22T12:02:37;99683.25;;;26.51;41.47
59443;BME280;45247;47.466;19.004;2023-05-22T12:05:08;99686.09;;;26.77;42.52
59443;BME280;45247;47.466;19.004;2023-05-22T12:07:37;99689.09;;;27.02;41.31
59443;BME280;45247;47.466;19.004;2023-05-22T12:10:08;99682.84;;;27.02;41.68
59443;BME280;45247;47.466;19.004;2023-05-22T12:12:37;99678.97;;;27.17;42.75
59443;BME280;45247;47.466;19.004;2023-05-22T12:15:09;99679.84;;;27.25;42.08
59443;BME280;45247;47.466;19.004;2023-05-22T12:17:37;99677.56;;;27.28;41.53
59443;BME280;45247;47.466;19.004;2023-05-22T12:20:11;99670.91;;;27.37;42.44
59443;BME280;45247;47.466;19.004;2023-05-22T12:22:41;99662.13;;;27.22;40.28
59443;BME280;45247;47.466;19.004;2023-05-22T12:25:13;99656.47;;;27.17;41.75
59443;BME280;45247;47.466;19.004;2023-05-22T12:27:43;99659.66;;;27.34;40.78
59443;BME280;45247;47.466;19.004;2023-05-22T12:30:13;99659.66;;;27.34;41.77
59443;BME280;45247;47.466;19.004;2023-05-22T12:32:46;99658.16;;;27.18;39.76
59443;BME280;45247;47.466;19.004;2023-05-22T12:35:16;99647.94;;;27.13;39.99
59443;BME280;45247;47.466;19.004;2023-05-22T12:37:48;99662.31;;;27.14;39.28
59443;BME280;45247;47.466;19.004;2023-05-22T12:40:17;99642.75;;;27.25;41.39
59443;BME280;45247;47.466;19.004;2023-05-22T12:42:47;99639.41;;;27.36;41.21
59443;BME280;45247;47.466;19.004;2023-05-22T12:45:16;99640.69;;;27.34;39.19
59443;BME280;45247;47.466;19.004;2023-05-22T12:47:44;99627.13;;;27.34;39.72
59443;BME280;45247;47.466;19.004;2023-05-22T12:50:23;99623.41;;;27.55;40.66
59443;BME280;45247;47.466;19.004;2023-05-22T12:52:51;99615.94;;;27.77;40.80
59443;BME280;45247;47.466;19.004;2023-05-22T12:55:19;99628.00;;;27.87;41.15
59443;BME280;45247;47.466;19.004;2023-05-22T12:57:48;99620.28;;;27.98;39.59
59443;BME280;45247;47.466;19.004;2023-05-22T13:00:18;99612.94;;;28.05;40.64
59443;BME280;45247;47.466;19.004;2023-05-22T13:02:46;99609.63;;;27.69;39.59
59443;BME280;45247;47.466;19.004;2023-05-22T13:05:16;99610.25;;;27.65;40.87
59443;BME280;45247;47.466;19.004;2023-05-22T13:07:45;99617.59;;;27.78;40.47
59443;BME280;45247;47.466;19.004;2023-05-22T13:10:13;99604.88;;;27.85;40.00
59443;BME280;45247;47.466;19.004;2023-05-22T13:12:42;99605.25;;;27.68;39.64